Clearwater, MN

1:14 PM CDT on July 29, 2016 (GMT -0500)
WOODSEDGE ADDITION | | Change Station

Elev 1014 ft 45.42 °N, 94.12 °W | Updated 4 minutes ago

Partly Cloudy
Partly Cloudy
79.2 °F
Feels Like 80 °F
N
2.0
Wind Variable Wind from ENE
Gusts 4.0 mph

Today
High -- | Low -- °F
--% Chance of Precip.
Yesterday
High -- | Low -- °F
Precip. -- in
Pressure 30.12 in
Visibility 10.0 miles
Clouds Few 7000 ft
Heat Index 80 °F
Dew Point 57 °F
Humidity 46%
Rainfall 0.00 in
Snow Depth Not available.
5:57 AM 8:47 PM
Waning Crescent, 20% visible
METAR KSTC 291753Z VRB05KT 10SM FEW070 24/12 A3010 RMK AO2 SLP200 T02390122 10239 20133 50002
Pressure 30.12 in
Visibility 10.0 miles
Clouds Few 7000 ft
Heat Index 80 °F
Dew Point 57 °F
Humidity 46%
Rainfall 0.00 in
Snow Depth Not available.
5:57 AM 8:47 PM
Waning Crescent, 20% visible
METAR KSTC 291753Z VRB05KT 10SM FEW070 24/12 A3010 RMK AO2 SLP200 T02390122 10239 20133 50002

10-Day Weather Forecast

Almanac

Astronomy

Jul. 29, 2016 Rise Set
Actual Time
Civil Twilight
Nautical Twilight
Astronomical Twilight
Moon
Length of Visible Light
Length of Day
Tomorrow will be .
, % of the Moon is Illuminated

Today's Extremes

State Highs State Lows

Community

WunderPhotos

Upload Photos

1,928,391 photos uploaded!

WunderBlog® & News

Nearby

Air Quality

  Air Quality AQ Index Pollutant
Not available.

Snow Depth

Station Depth Elevation

Earthquake Activity

City Distance Mag. Time & Date
Minimum magnitude displayed is 2.5.

Coastal Water Temperatures

Place Temperature

Stations

Nearby Weather Stations

Station Location Temp. Windchill Dew Point Humidity Wind Precip. Elev Updated Type
                   

Watches & Warnings

There are currently no watches in effect.